Time;durP1;ratioP1;P1;durP2;ratioP2;P2;SDS_P1;SDS_P2;PMS_P1;PMS_P2;Temp;Humidity;BMP_temperature;BMP_pressure;BME280_temperature;BME280_humidity;BME280_pressure;Samples;Min_cycle;Max_cycle;Signal;HPM_P1;HPM_P2
2021/01/20 00:00:19;;;;;;;45.40;26.57;;;51.50;2227.20;;;;;;5051236;28;20071;-82
2021/01/20 00:02:48;;;;;;;43.07;25.53;;;51.20;2227.20;;;;;;5066700;28;20039;-82
2021/01/20 00:05:15;;;;;;;44.20;26.13;;;51.80;2227.20;;;;;;5071011;28;20032;-81
2021/01/20 00:07:42;;;;;;;52.23;29.13;;;51.50;2227.20;;;;;;5071102;28;20029;-82
2021/01/20 00:10:08;;;;;;;55.27;30.10;;;51.50;2227.20;;;;;;5054449;28;20033;-82
2021/01/20 00:12:36;;;;;;;55.43;32.33;;;51.50;2227.20;;;;;;5054647;28;20134;-81
2021/01/20 00:15:04;;;;;;;61.07;33.40;;;51.40;2227.20;;;;;;5054418;28;20021;-82
2021/01/20 00:17:30;;;;;;;52.23;30.47;;;51.50;2227.20;;;;;;5051328;28;20086;-82
2021/01/20 00:19:57;;;;;;;57.23;31.07;;;51.40;2227.20;;;;;;5071738;28;20027;-82
2021/01/20 00:22:28;;;;;;;48.63;29.53;;;51.40;2227.20;;;;;;5068656;28;20025;-81
2021/01/20 00:24:55;;;;;;;55.73;31.80;;;51.50;2227.20;;;;;;5054015;28;20119;-81
2021/01/20 00:27:21;;;;;;;52.63;30.03;;;51.60;2227.20;;;;;;5054091;28;20029;-82
2021/01/20 00:29:48;;;;;;;52.27;29.53;;;51.50;2227.20;;;;;;5037774;28;20405;-82
2021/01/20 00:32:15;;;;;;;55.73;29.90;;;51.50;2227.20;;;;;;5054166;28;20040;-81
2021/01/20 00:34:41;;;;;;;52.53;30.37;;;51.50;2227.20;;;;;;5053913;28;20041;-77
2021/01/20 00:37:08;;;;;;;46.53;26.87;;;51.50;2227.20;;;;;;5069412;28;20021;-81
2021/01/20 00:39:34;;;;;;;51.67;28.93;;;51.50;2227.20;;;;;;5070254;28;20021;-81
2021/01/20 00:42:00;;;;;;;45.27;27.17;;;51.50;2227.20;;;;;;5034125;28;20033;-81
2021/01/20 00:44:25;;;;;;;45.87;25.53;;;51.60;2227.20;;;;;;5049922;28;20025;-81
2021/01/20 00:46:54;;;;;;;41.67;26.67;;;51.60;2227.20;;;;;;5052766;28;20029;-82
2021/01/20 00:49:22;;;;;;;41.07;24.97;;;51.60;2227.20;;;;;;5053059;28;20056;-82
2021/01/20 00:51:48;;;;;;;42.43;25.63;;;51.60;2227.20;;;;;;5053016;28;20083;-81
2021/01/20 00:54:14;;;;;;;42.30;25.57;;;51.60;2227.20;;;;;;5071337;28;20031;-81
2021/01/20 00:56:39;;;;;;;40.53;24.23;;;51.60;2227.20;;;;;;5071720;28;20023;-81
2021/01/20 00:59:05;;;;;;;42.57;24.60;;;51.60;2227.20;;;;;;5053049;28;20029;-82
2021/01/20 01:01:31;;;;;;;40.60;24.47;;;51.60;2227.20;;;;;;5052945;28;20029;-80
2021/01/20 01:03:57;;;;;;;36.07;22.90;;;51.60;2227.20;;;;;;5045908;28;20025;-78
2021/01/20 01:06:23;;;;;;;34.30;22.37;;;51.60;2227.20;;;;;;5048168;28;20025;-78
2021/01/20 01:08:50;;;;;;;35.10;22.13;;;51.60;2227.20;;;;;;5049553;28;20017;-81
2021/01/20 01:11:15;;;;;;;35.07;21.80;;;51.60;2227.20;;;;;;5049428;28;20028;-80
2021/01/20 01:13:44;;;;;;;32.73;21.03;;;51.60;2227.20;;;;;;5047553;28;20043;-81
2021/01/20 01:16:11;;;;;;;34.10;22.30;;;51.60;2227.20;;;;;;5048077;28;20029;-80
2021/01/20 01:18:37;;;;;;;37.97;22.80;;;51.60;2227.20;;;;;;5060447;28;20017;-81
2021/01/20 01:21:02;;;;;;;37.27;22.47;;;51.60;2227.20;;;;;;5027398;28;20033;-79
2021/01/20 01:23:29;;;;;;;34.73;21.50;;;51.60;2227.20;;;;;;5047592;28;20040;-80
2021/01/20 01:25:59;;;;;;;37.73;22.33;;;51.70;2227.20;;;;;;5076918;28;20112;-77
2021/01/20 01:28:25;;;;;;;32.77;20.77;;;51.90;2227.20;;;;;;5058817;28;20025;-81
2021/01/20 01:30:51;;;;;;;33.70;20.70;;;51.60;2227.20;;;;;;5050490;28;20053;-78
2021/01/20 01:33:16;;;;;;;35.83;21.43;;;51.60;2227.20;;;;;;5078084;28;20021;-79
2021/01/20 01:35:42;;;;;;;33.13;20.07;;;51.60;2227.20;;;;;;5050703;28;20037;-81
2021/01/20 01:38:08;;;;;;;34.00;20.23;;;51.70;2227.20;;;;;;5050594;28;20043;-80
2021/01/20 01:40:34;;;;;;;34.27;20.40;;;51.70;2227.20;;;;;;5068592;28;20422;-81
2021/01/20 01:43:01;;;;;;;34.87;20.47;;;51.70;2227.20;;;;;;5052488;28;20095;-80
2021/01/20 01:45:28;;;;;;;29.30;19.40;;;51.70;2227.20;;;;;;5065963;28;20043;-80
2021/01/20 01:47:54;;;;;;;30.57;19.23;;;51.70;2227.20;;;;;;5067930;28;20035;-81
2021/01/20 01:50:21;;;;;;;30.37;19.33;;;51.70;2227.20;;;;;;5052854;28;20057;-79
2021/01/20 01:52:50;;;;;;;30.43;19.03;;;51.70;2227.20;;;;;;5070129;28;20025;-81
2021/01/20 01:55:16;;;;;;;27.70;17.43;;;51.70;2227.20;;;;;;5036773;28;20021;-81
2021/01/20 01:57:44;;;;;;;36.37;19.73;;;51.70;2227.20;;;;;;5053215;28;20019;-81
2021/01/20 02:00:10;;;;;;;29.53;18.53;;;51.70;2227.20;;;;;;5053691;28;20032;-80
2021/01/20 02:02:37;;;;;;;33.13;18.77;;;51.70;2227.20;;;;;;5053222;28;20033;-80
2021/01/20 02:05:04;;;;;;;31.90;18.80;;;51.80;2227.20;;;;;;5071866;28;20029;-81
2021/01/20 02:07:32;;;;;;;30.70;19.57;;;51.60;2227.20;;;;;;5053898;28;20079;-81
2021/01/20 02:10:01;;;;;;;30.70;19.27;;;51.80;2227.20;;;;;;5070811;28;20017;-81
2021/01/20 02:13:12;;;;;;;31.10;19.10;;;51.80;2227.20;;;;;;5054285;28;20033;-80
2021/01/20 02:15:57;;;;;;;29.53;18.57;;;51.80;2227.20;;;;;;4993752;28;20041;-80
2021/01/20 02:18:27;;;;;;;29.33;18.13;;;51.80;2227.20;;;;;;4993960;28;20027;-81
2021/01/20 02:21:23;;;;;;;30.93;18.10;;;51.80;2227.20;;;;;;4993498;28;20038;-80
2021/01/20 02:23:50;;;;;;;29.37;17.30;;;51.90;2227.20;;;;;;4994207;28;20026;-80
2021/01/20 02:26:50;;;;;;;26.13;16.83;;;51.90;2227.20;;;;;;4996846;28;20046;-80
2021/01/20 02:29:27;;;;;;;24.87;15.43;;;51.90;2227.20;;;;;;5010069;28;20076;-80
2021/01/20 02:31:55;;;;;;;22.53;14.87;;;52.00;2227.20;;;;;;4994499;28;20042;-80
2021/01/20 02:34:22;;;;;;;24.00;14.73;;;52.00;2201.60;;;;;;5025091;28;20072;-78
2021/01/20 02:36:53;;;;;;;21.67;13.97;;;77.00;2201.60;;;;;;5028657;28;20582;-80
2021/01/20 02:39:20;;;;;;;23.43;14.40;;;52.10;2201.60;;;;;;5029118;28;20029;-80
2021/01/20 02:41:46;;;;;;;21.87;13.37;;;76.80;2176.00;;;;;;5012894;28;20030;-79
2021/01/20 02:44:16;;;;;;;20.67;13.17;;;76.80;2176.00;;;;;;5028971;28;20041;-80
2021/01/20 02:46:46;;;;;;;20.70;13.13;;;76.80;2176.00;;;;;;5029867;28;20048;-80
2021/01/20 02:49:12;;;;;;;21.80;13.13;;;76.80;2176.00;;;;;;5012534;28;20034;-80
2021/01/20 02:51:53;;;;;;;24.33;14.50;;;76.80;2176.00;;;;;;5019004;28;20041;-80
2021/01/20 02:54:21;;;;;;;21.80;13.20;;;76.90;2176.00;;;;;;5053258;28;20500;-80
2021/01/20 02:56:52;;;;;;;21.80;13.63;;;76.90;2150.40;;;;;;5071227;28;20028;-79
2021/01/20 02:59:26;;;;;;;19.83;13.07;;;77.60;2176.00;;;;;;5070050;28;20025;-79
2021/01/20 03:01:55;;;;;;;;;;;76.90;2176.00;;;;;;5054117;28;20036;-79
2021/01/20 03:04:25;;;;;;;20.33;11.97;;;76.90;2150.40;;;;;;5071055;28;19928;-79
2021/01/20 03:06:57;;;;;;;19.83;12.30;;;76.90;2176.00;;;;;;5069712;28;20021;-80
2021/01/20 03:09:26;;;;;;;20.70;12.60;;;76.90;2150.40;;;;;;5071475;28;20029;-80
2021/01/20 03:11:53;;;;;;;22.60;11.90;;;77.00;2150.40;;;;;;5052856;28;20117;-80
2021/01/20 03:14:28;;;;;;;21.97;13.10;;;77.00;2150.40;;;;;;5037995;28;20029;-80
2021/01/20 03:16:54;;;;;;;20.83;12.50;;;77.00;2176.00;;;;;;5053859;28;20386;-80
2021/01/20 03:19:22;;;;;;;19.97;12.17;;;77.00;2150.40;;;;;;5036850;28;20028;-80
2021/01/20 03:21:51;;;;;;;20.13;12.67;;;77.10;2150.40;;;;;;5053304;28;20089;-80
2021/01/20 03:24:19;;;;;;;18.33;12.63;;;77.00;2150.40;;;;;;5070539;28;20025;-80
2021/01/20 03:26:48;;;;;;;17.97;12.53;;;77.00;2150.40;;;;;;5053565;28;20056;-80
2021/01/20 03:29:14;;;;;;;22.23;13.13;;;77.00;2150.40;;;;;;5053374;28;20056;-80
2021/01/20 03:31:40;;;;;;;23.43;13.00;;;77.00;2150.40;;;;;;5053789;28;20604;-79
2021/01/20 03:34:07;;;;;;;20.37;12.47;;;52.10;2150.40;;;;;;5071039;28;20033;-79
2021/01/20 03:36:34;;;;;;;21.80;13.20;;;77.10;2150.40;;;;;;5069354;28;20054;-79
2021/01/20 03:39:01;;;;;;;22.60;12.47;;;77.00;2150.40;;;;;;5057749;28;20052;-81
2021/01/20 03:41:28;;;;;;;20.37;12.97;;;77.10;2124.80;;;;;;5040775;28;20033;-80
2021/01/20 03:44:00;;;;;;;24.03;14.23;;;77.10;2124.80;;;;;;5073897;28;20088;-79
2021/01/20 03:46:26;;;;;;;20.83;12.57;;;77.10;2124.80;;;;;;5056309;28;20025;-80
2021/01/20 03:48:59;;;;;;;20.97;12.53;;;77.30;2124.80;;;;;;5070709;28;20021;-80
2021/01/20 03:51:29;;;;;;;25.13;13.90;;;77.10;2124.80;;;;;;5056943;28;20029;-80
2021/01/20 03:54:00;;;;;;;25.10;13.77;;;77.20;2124.80;;;;;;5041699;28;20088;-80
2021/01/20 03:56:27;;;;;;;27.43;14.70;;;51.50;2099.20;;;;;;5071067;28;20036;-79
2021/01/20 03:58:53;;;;;;;27.80;14.90;;;77.20;2124.80;;;;;;5056925;28;20079;-80
2021/01/20 04:01:22;;;;;;;28.17;16.10;;;77.20;2124.80;;;;;;5056524;28;20029;-81
2021/01/20 04:03:49;;;;;;;25.67;15.40;;;77.20;2099.20;;;;;;5055698;28;20053;-80
2021/01/20 04:06:18;;;;;;;24.70;14.93;;;77.20;2099.20;;;;;;5057394;28;20025;-79
2021/01/20 04:08:50;;;;;;;21.43;14.00;;;77.20;2124.80;;;;;;5056707;28;20029;-81
2021/01/20 04:11:20;;;;;;;19.40;11.50;;;77.20;2124.80;;;;;;5057140;28;20394;-80
2021/01/20 04:13:50;;;;;;;20.67;12.50;;;77.20;2124.80;;;;;;5073867;28;20021;-81
2021/01/20 04:16:18;;;;;;;21.50;12.23;;;76.90;2124.80;;;;;;5055144;28;20104;-79
2021/01/20 04:18:45;;;;;;;20.40;12.03;;;77.30;2124.80;;;;;;5067377;28;20021;-79
2021/01/20 04:21:12;;;;;;;19.67;11.27;;;77.30;2124.80;;;;;;5048231;28;20025;-77
2021/01/20 04:23:38;;;;;;;20.77;11.90;;;77.30;2099.20;;;;;;5045415;28;20031;-80
2021/01/20 04:26:10;;;;;;;19.53;11.83;;;77.30;2099.20;;;;;;5048921;28;20032;-78
2021/01/20 04:28:36;;;;;;;18.17;11.53;;;77.30;2099.20;;;;;;5066662;28;20033;-78
2021/01/20 04:31:03;;;;;;;21.80;11.90;;;77.30;2099.20;;;;;;5050891;28;20056;-79
2021/01/20 04:33:30;;;;;;;20.00;12.43;;;77.30;2099.20;;;;;;5049232;28;20025;-80
2021/01/20 04:35:56;;;;;;;18.97;12.23;;;77.30;2099.20;;;;;;5051698;28;20040;-79
2021/01/20 04:38:23;;;;;;;20.27;12.23;;;77.30;2124.80;;;;;;5068948;28;20050;-79
2021/01/20 04:40:59;;;;;;;19.03;11.50;;;77.10;2099.20;;;;;;5048395;28;20048;-78
2021/01/20 04:43:26;;;;;;;18.03;11.80;;;77.30;2124.80;;;;;;5049655;28;20046;-79
2021/01/20 04:45:58;;;;;;;23.40;11.70;;;52.10;2124.80;;;;;;5032997;28;20029;-80
2021/01/20 04:48:31;;;;;;;22.10;12.23;;;77.30;2124.80;;;;;;5049712;28;20025;-80
2021/01/20 04:51:03;;;;;;;19.80;11.15;;;77.30;2124.80;;;;;;5052418;28;20060;-78
2021/01/20 04:53:33;;;;;;;18.33;11.20;;;77.20;2124.80;;;;;;5066016;28;20025;-78
2021/01/20 04:56:11;;;;;;;19.13;11.57;;;77.20;2124.80;;;;;;5064276;28;20036;-78
2021/01/20 04:58:40;;;;;;;19.03;11.97;;;77.30;2124.80;;;;;;5046974;28;20025;-80
2021/01/20 05:01:06;;;;;;;20.60;12.37;;;77.30;2124.80;;;;;;5046586;28;20025;-78
2021/01/20 05:03:32;;;;;;;20.63;13.13;;;77.30;2124.80;;;;;;5064674;28;20056;-78
2021/01/20 05:05:59;;;;;;;53.13;30.37;;;77.30;2124.80;;;;;;5046480;28;20021;-79
2021/01/20 05:08:26;;;;;;;20.10;13.10;;;77.30;2124.80;;;;;;5047310;28;20044;-78
2021/01/20 05:10:53;;;;;;;19.20;11.90;;;77.30;2124.80;;;;;;5066774;28;20032;-80
2021/01/20 05:13:25;;;;;;;17.90;11.57;;;77.30;2124.80;;;;;;5053355;28;20108;-79
2021/01/20 05:15:53;;;;;;;19.03;11.73;;;77.30;2124.80;;;;;;5036018;28;20033;-79
2021/01/20 05:18:21;;;;;;;19.07;12.17;;;77.30;2124.80;;;;;;5051075;28;20048;-79
2021/01/20 05:20:47;;;;;;;19.57;11.60;;;77.30;2124.80;;;;;;5036253;28;20092;-79
2021/01/20 05:23:14;;;;;;;23.20;12.93;;;77.30;2124.80;;;;;;5053016;28;20024;-79
2021/01/20 05:25:45;;;;;;;21.90;12.97;;;77.70;2124.80;;;;;;5052920;28;20021;-79
2021/01/20 05:28:25;;;;;;;19.70;12.27;;;77.30;2124.80;;;;;;5051110;28;20047;-79
2021/01/20 05:31:02;;;;;;;20.90;11.60;;;77.30;2124.80;;;;;;5047648;28;20449;-79
2021/01/20 05:33:31;;;;;;;18.77;11.83;;;77.50;2124.80;;;;;;5052892;28;20025;-80
2021/01/20 05:36:11;;;;;;;21.73;12.37;;;77.40;2124.80;;;;;;5054036;28;20021;-80
2021/01/20 05:38:42;;;;;;;20.40;12.30;;;77.30;2124.80;;;;;;5071572;28;20036;-80
2021/01/20 05:41:19;;;;;;;21.83;13.33;;;77.40;2124.80;;;;;;5055168;28;20025;-80
2021/01/20 05:43:49;;;;;;;26.17;14.37;;;77.40;2099.20;;;;;;5073588;28;20048;-80
2021/01/20 05:46:39;;;;;;;22.63;14.10;;;77.40;2124.80;;;;;;5055364;28;20056;-80
2021/01/20 05:49:08;;;;;;;22.07;13.17;;;77.40;2124.80;;;;;;5072447;28;20021;-80
2021/01/20 05:51:41;;;;;;;21.47;13.50;;;77.40;2124.80;;;;;;5072842;28;20025;-80
2021/01/20 05:54:12;;;;;;;22.35;12.70;;;77.40;2124.80;;;;;;5054634;28;20093;-80
2021/01/20 05:56:42;;;;;;;17.27;12.37;;;77.40;2124.80;;;;;;5055664;28;20025;-80
2021/01/20 05:59:11;;;;;;;20.23;13.00;;;77.40;2124.80;;;;;;5055191;28;20505;-79
2021/01/20 06:01:41;;;;;;;22.70;13.33;;;77.40;2124.80;;;;;;5054415;28;20021;-80
2021/01/20 06:04:12;;;;;;;22.80;13.50;;;77.40;2124.80;;;;;;5072588;28;20056;-80
2021/01/20 06:06:40;;;;;;;22.10;13.13;;;77.40;2124.80;;;;;;5055124;28;20045;-81
2021/01/20 06:09:08;;;;;;;19.70;12.37;;;77.70;2124.80;;;;;;5072224;28;20051;-80
2021/01/20 06:11:34;;;;;;;22.23;12.00;;;77.20;2124.80;;;;;;5037697;28;20037;-79
2021/01/20 06:14:04;;;;;;;23.43;12.63;;;77.50;2124.80;;;;;;5038420;28;20012;-79
2021/01/20 06:16:36;;;;;;;19.60;12.13;;;77.50;2124.80;;;;;;5055135;28;20067;-80
2021/01/20 06:19:13;;;;;;;27.97;13.33;;;77.50;2099.20;;;;;;5054154;28;20080;-80
2021/01/20 06:21:41;;;;;;;30.50;15.40;;;77.50;2124.80;;;;;;5054813;28;20043;-80
2021/01/20 06:24:14;;;;;;;29.33;18.10;;;77.50;2124.80;;;;;;5072409;28;20032;-80
2021/01/20 06:27:01;;;;;;;;;;;77.50;2150.40;;;;;;5052291;28;20036;-80
2021/01/20 06:29:31;;;;;;;28.80;17.03;;;77.50;2150.40;;;;;;5054686;28;19920;-80
2021/01/20 06:31:58;;;;;;;29.27;15.20;;;77.40;2150.40;;;;;;5072925;28;20033;-80
2021/01/20 06:34:25;;;;;;;24.53;14.87;;;77.40;2150.40;;;;;;5072196;28;20171;-80
2021/01/20 06:36:54;;;;;;;25.87;15.97;;;77.40;2150.40;;;;;;5054508;28;20501;-80
2021/01/20 06:39:27;;;;;;;26.70;15.87;;;77.40;2176.00;;;;;;5071971;28;20097;-80
2021/01/20 06:41:54;;;;;;;23.73;15.20;;;102.50;2176.00;;;;;;5054811;28;20092;-80
2021/01/20 06:44:20;;;;;;;31.37;15.80;;;77.40;2176.00;;;;;;5054132;28;20029;-80
2021/01/20 06:46:59;;;;;;;31.60;16.27;;;77.10;2176.00;;;;;;5054389;28;20063;-80
2021/01/20 06:49:30;;;;;;;42.10;20.17;;;77.40;2176.00;;;;;;5053859;28;20025;-79
2021/01/20 06:52:17;;;;;;;47.30;21.60;;;77.50;2176.00;;;;;;5071218;28;20040;-80
2021/01/20 06:54:50;;;;;;;34.00;16.73;;;77.50;2176.00;;;;;;5053600;28;20029;-80
2021/01/20 06:57:25;;;;;;;29.45;16.30;;;77.50;2176.00;;;;;;5052601;28;20028;-79
2021/01/20 07:00:15;;;;;;;39.40;19.10;;;77.50;2176.00;;;;;;5070384;28;20052;-80
2021/01/20 07:03:03;;;;;;;24.93;15.20;;;77.50;2176.00;;;;;;5053018;28;20062;-80
2021/01/20 07:05:44;;;;;;;27.37;15.30;;;77.50;2176.00;;;;;;5069986;28;20025;-79
2021/01/20 07:08:11;;;;;;;21.37;13.00;;;77.60;2176.00;;;;;;5069585;28;20021;-81
2021/01/20 07:11:00;;;;;;;22.83;15.10;;;77.60;2176.00;;;;;;5069106;28;20045;-80
2021/01/20 07:13:38;;;;;;;24.23;14.20;;;77.70;2150.40;;;;;;5075282;28;20080;-80
2021/01/20 07:16:06;;;;;;;24.33;14.33;;;77.70;2150.40;;;;;;5074389;28;20021;-80
2021/01/20 07:18:37;;;;;;;27.47;14.23;;;102.40;2150.40;;;;;;5057379;28;20029;-79
2021/01/20 07:21:07;;;;;;;23.50;13.67;;;102.40;2150.40;;;;;;5056951;28;20029;-79
2021/01/20 07:23:34;;;;;;;21.50;13.70;;;102.40;2150.40;;;;;;5056812;28;20025;-80
2021/01/20 07:26:06;;;;;;;21.57;13.77;;;102.50;2124.80;;;;;;5056326;28;20036;-79
2021/01/20 07:28:37;;;;;;;27.53;16.33;;;102.50;2150.40;;;;;;5054031;28;20093;-79
2021/01/20 07:31:14;;;;;;;32.10;18.77;;;102.50;2150.40;;;;;;5054874;28;20081;-79
2021/01/20 07:33:49;;;;;;;28.20;16.77;;;102.50;2150.40;;;;;;5053815;28;20079;-79
2021/01/20 07:36:18;;;;;;;27.20;16.23;;;102.50;2150.40;;;;;;5071512;28;20021;-79
2021/01/20 07:38:50;;;;;;;33.67;18.00;;;102.40;2150.40;;;;;;5053460;28;20017;-79
2021/01/20 07:41:18;;;;;;;39.90;21.13;;;102.40;2150.40;;;;;;5068178;28;20048;-79
2021/01/20 07:43:45;;;;;;;33.53;18.93;;;102.40;2176.00;;;;;;5071183;28;20021;-79
2021/01/20 07:46:23;;;;;;;36.53;20.37;;;102.40;2176.00;;;;;;5071046;28;20028;-79
2021/01/20 07:48:50;;;;;;;42.53;23.80;;;102.40;2150.40;;;;;;5053387;28;20406;-79
2021/01/20 07:51:22;;;;;;;47.17;25.47;;;102.50;2176.00;;;;;;5070803;28;20029;-79
2021/01/20 07:54:02;;;;;;;45.53;25.83;;;77.60;2176.00;;;;;;5036844;28;20032;-79
2021/01/20 07:56:30;;;;;;;37.40;21.23;;;102.50;2176.00;;;;;;5052468;28;20021;-78
2021/01/20 07:59:13;;;;;;;38.40;21.77;;;102.50;2176.00;;;;;;5037375;28;20092;-79
2021/01/20 08:01:40;;;;;;;43.07;22.27;;;102.50;2176.00;;;;;;5056993;28;20035;-80
2021/01/20 08:04:27;;;;;;;33.00;20.53;;;102.50;2176.00;;;;;;5039492;28;20025;-79
2021/01/20 08:06:53;;;;;;;33.10;19.50;;;102.60;2176.00;;;;;;5041487;28;20041;-79
2021/01/20 08:09:21;;;;;;;38.43;20.87;;;102.60;2176.00;;;;;;5059594;28;20016;-79
2021/01/20 08:12:01;;;;;;;51.77;26.10;;;102.70;2176.00;;;;;;5077231;28;20047;-78
2021/01/20 08:17:26;;;;;;;44.23;23.07;;;102.70;2176.00;;;;;;5086196;23;20064;-80
2021/01/20 08:25:38;;;;;;;29.27;16.70;;;102.90;2176.00;;;;;;5017541;28;20260;-79
2021/01/20 08:38:31;;;;;;;42.73;24.17;;;102.90;2201.60;;;;;;4778199;26;20068;-79
2021/01/20 08:41:17;;;;;;;56.60;29.67;;;102.90;2201.60;;;;;;5002876;28;20053;-79
2021/01/20 08:57:31;;;;;;;40.03;22.50;;;103.20;2201.60;;;;;;5278924;23;20053;-78
2021/01/20 09:01:11;;;;;;;37.77;21.03;;;103.30;2201.60;;;;;;5036727;28;20026;-78
2021/01/20 09:04:44;;;;;;;35.60;21.10;;;103.30;2201.60;;;;;;4977872;29;20039;-77
2021/01/20 09:08:06;;;;;;;40.83;21.63;;;128.00;2227.20;;;;;;4902774;29;20029;-78
2021/01/20 09:11:50;;;;;;;35.73;20.37;;;128.10;2227.20;;;;;;4809175;30;20048;-77
2021/01/20 09:14:53;;;;;;;33.70;20.70;;;128.10;2227.20;;;;;;4774168;30;20058;-77
2021/01/20 09:18:33;;;;;;;24.63;14.73;;;128.20;2227.20;;;;;;4790150;30;20104;-78
2021/01/20 09:21:19;;;;;;;23.00;12.73;;;128.20;2227.20;;;;;;4715601;30;20041;-75
2021/01/20 09:24:34;;;;;;;20.57;12.67;;;128.10;2252.80;;;;;;4698925;30;20045;-77
2021/01/20 09:31:49;;;;;;;22.43;13.93;;;128.20;2252.80;;;;;;4884019;22;20040;-80
2021/01/20 09:35:37;;;;;;;24.35;14.40;;;128.30;2252.80;;;;;;4951538;29;20579;-80
2021/01/20 09:43:21;;;;;;;21.10;13.55;;;128.50;2252.80;;;;;;4882868;29;20064;-80
2021/01/20 09:46:28;;;;;;;25.77;15.83;;;128.60;2252.80;;;;;;4771885;30;20068;-80
2021/01/20 09:50:25;;;;;;;28.70;16.60;;;128.60;2252.80;;;;;;4756934;30;20051;-81
2021/01/20 09:57:18;;;;;;;27.77;15.87;;;128.50;2252.80;;;;;;4739348;30;20068;-81
2021/01/20 10:00:32;;;;;;;43.77;20.87;;;128.60;2252.80;;;;;;4739977;30;20041;-81
2021/01/20 10:11:04;;;;;;;157.07;74.23;;;128.80;2252.80;;;;;;4654831;30;20051;-80
2021/01/20 10:17:09;;;;;;;450.90;189.67;;;128.90;2252.80;;;;;;5149404;23;20056;-80
2021/01/20 10:20:40;;;;;;;160.47;88.83;;;153.60;2252.80;;;;;;4966342;28;20119;-78
2021/01/20 10:24:01;;;;;;;182.00;96.80;;;153.60;2252.80;;;;;;4919011;29;20056;-79
2021/01/20 10:27:38;;;;;;;68.07;35.30;;;153.60;2252.80;;;;;;4863640;29;20072;-79
2021/01/20 10:31:26;;;;;;;65.90;39.07;;;153.60;2252.80;;;;;;4826474;29;20116;-79
2021/01/20 10:35:08;;;;;;;43.00;22.80;;;153.60;2252.80;;;;;;4754446;30;20047;-79
2021/01/20 10:39:10;;;;;;;54.20;30.17;;;153.70;2227.20;;;;;;4718435;30;20045;-79
2021/01/20 11:20:20;;;;;;;47.17;28.00;;;154.40;2227.20;;;;;;6173198;23;20448;-83
2021/01/20 11:22:51;;;;;;;38.13;22.90;;;179.20;2201.60;;;;;;6198245;23;20005;-84
2021/01/20 11:25:17;;;;;;;36.03;22.03;;;179.30;2201.60;;;;;;6198247;23;20400;-84
2021/01/20 11:27:45;;;;;;;25.95;17.10;;;179.40;2176.00;;;;;;6198058;23;20032;-84
2021/01/20 11:30:13;;;;;;;27.77;17.60;;;179.50;2176.00;;;;;;6198176;23;20032;-84
2021/01/20 11:32:40;;;;;;;23.42;15.15;;;179.50;2150.40;;;;;;6198024;23;20055;-83
2021/01/20 11:35:07;;;;;;;25.03;15.37;;;179.60;2150.40;;;;;;6198076;23;20419;-82
2021/01/20 11:37:32;;;;;;;26.13;16.25;;;179.60;2150.40;;;;;;6198138;23;20102;-85
2021/01/20 11:40:03;;;;;;;24.98;15.25;;;179.60;2124.80;;;;;;6224656;23;20418;-84
2021/01/20 11:42:30;;;;;;;21.33;12.90;;;179.70;2124.80;;;;;;6198364;23;20004;-84
2021/01/20 11:44:56;;;;;;;23.00;14.18;;;179.80;2124.80;;;;;;6198260;23;20055;-84
2021/01/20 11:47:22;;;;;;;29.33;16.58;;;179.80;2124.80;;;;;;6224647;23;20373;-85
2021/01/20 11:49:48;;;;;;;25.42;15.70;;;179.90;2124.80;;;;;;6198146;23;20011;-86
2021/01/20 11:52:14;;;;;;;17.88;11.80;;;180.00;2099.20;;;;;;6224649;23;20066;-85
2021/01/20 11:54:40;;;;;;;19.33;11.23;;;180.10;2073.60;;;;;;6197919;23;20001;-85
2021/01/20 11:57:06;;;;;;;16.38;9.90;;;204.80;2073.60;;;;;;6224599;23;20037;-83
2021/01/20 11:59:32;;;;;;;15.55;10.15;;;204.90;2048.00;;;;;;6197508;23;20303;-84
2021/01/20 12:01:57;;;;;;;16.33;10.70;;;205.00;2022.40;;;;;;6210994;23;20020;-84
2021/01/20 12:04:23;;;;;;;20.40;13.20;;;205.10;2022.40;;;;;;6186059;23;20025;-84
2021/01/20 12:06:49;;;;;;;53.17;29.30;;;205.20;2022.40;;;;;;6187722;23;20008;-82
2021/01/20 12:09:15;;;;;;;44.58;24.70;;;205.20;2022.40;;;;;;6186192;23;20378;-82
2021/01/20 12:11:41;;;;;;;52.78;27.70;;;205.30;1996.80;;;;;;6185948;23;20048;-82
2021/01/20 12:14:07;;;;;;;37.40;20.15;;;205.30;1996.80;;;;;;6187422;23;19997;-82
2021/01/20 12:16:33;;;;;;;31.33;17.63;;;205.30;1996.80;;;;;;6185462;23;20009;-82
2021/01/20 12:18:59;;;;;;;35.03;18.83;;;205.30;1996.80;;;;;;6187605;23;20024;-82
2021/01/20 12:21:24;;;;;;;37.55;22.33;;;205.30;1996.80;;;;;;6187130;23;20009;-81
2021/01/20 12:23:50;;;;;;;47.67;29.48;;;205.30;1996.80;;;;;;6186052;23;20005;-81
2021/01/20 12:26:20;;;;;;;33.00;20.23;;;205.40;1996.80;;;;;;6187441;23;20008;-81
2021/01/20 12:28:45;;;;;;;25.90;16.30;;;205.40;1996.80;;;;;;6185922;23;20009;-82
2021/01/20 12:31:11;;;;;;;28.70;17.58;;;205.40;1996.80;;;;;;6185865;23;20008;-81
2021/01/20 12:33:38;;;;;;;26.33;16.20;;;205.50;1996.80;;;;;;6187735;23;20009;-77
2021/01/20 12:36:05;;;;;;;28.00;15.80;;;205.70;1996.80;;;;;;6185658;23;20091;-80
2021/01/20 12:38:31;;;;;;;20.30;12.60;;;230.40;1971.20;;;;;;6185716;23;20005;-83
2021/01/20 12:40:57;;;;;;;15.45;10.55;;;230.60;1971.20;;;;;;6185616;23;20032;-81
2021/01/20 12:43:23;;;;;;;17.90;11.38;;;230.80;1945.60;;;;;;6185533;23;20013;-79
2021/01/20 12:45:49;;;;;;;18.48;9.38;;;230.90;1920.00;;;;;;6185598;23;20090;-74
2021/01/20 12:48:16;;;;;;;15.00;8.82;;;230.90;1920.00;;;;;;6185638;23;20005;-82
2021/01/20 12:50:41;;;;;;;19.98;10.65;;;230.90;1920.00;;;;;;6185036;23;20378;-81
2021/01/20 12:53:07;;;;;;;12.70;8.18;;;230.90;1920.00;;;;;;6185625;23;20005;-83
2021/01/20 12:55:33;;;;;;;27.23;15.52;;;230.90;1894.40;;;;;;6186913;23;20324;-81
2021/01/20 12:57:59;;;;;;;61.47;33.47;;;230.90;1920.00;;;;;;6186848;23;20008;-82
2021/01/20 13:00:25;;;;;;;20.77;12.10;;;231.00;1920.00;;;;;;6185329;23;20004;-81
2021/01/20 13:02:51;;;;;;;19.35;12.23;;;231.00;1920.00;;;;;;6186607;23;20027;-80
2021/01/20 13:05:17;;;;;;;18.77;10.88;;;231.10;1920.00;;;;;;6187275;23;20070;-80
2021/01/20 13:07:42;;;;;;;25.63;14.88;;;231.00;1894.40;;;;;;6185534;23;20514;-77
2021/01/20 13:10:10;;;;;;;33.67;19.75;;;231.00;1894.40;;;;;;6186791;23;20004;-78
2021/01/20 13:12:36;;;;;;;23.38;13.63;;;231.10;1894.40;;;;;;6186540;23;20413;-77
2021/01/20 13:15:02;;;;;;;22.77;13.55;;;231.10;1920.00;;;;;;6184660;23;20002;-80
2021/01/20 13:17:30;;;;;;;46.20;24.10;;;231.00;1920.00;;;;;;6184956;23;20441;-78
2021/01/20 13:19:56;;;;;;;30.80;15.32;;;231.00;1920.00;;;;;;6186082;23;19997;-76
2021/01/20 13:22:22;;;;;;;38.40;17.35;;;230.90;1920.00;;;;;;6185023;23;20012;-80
2021/01/20 13:24:48;;;;;;;20.73;11.82;;;230.80;1920.00;;;;;;6184894;23;20001;-77
2021/01/20 13:27:14;;;;;;;78.90;29.42;;;230.80;1920.00;;;;;;6184982;23;20005;-82
2021/01/20 13:29:41;;;;;;;19.73;11.45;;;230.70;1920.00;;;;;;6184915;23;20028;-77
2021/01/20 13:32:09;;;;;;;18.27;10.35;;;230.70;1920.00;;;;;;6184823;23;20013;-77
2021/01/20 13:34:36;;;;;;;18.85;11.55;;;230.70;1920.00;;;;;;6184781;23;20334;-82
2021/01/20 13:37:03;;;;;;;16.70;10.88;;;230.70;1920.00;;;;;;6186455;23;20009;-79
2021/01/20 13:39:29;;;;;;;20.40;10.77;;;230.70;1945.60;;;;;;6186373;23;20056;-86
2021/01/20 13:41:54;;;;;;;17.65;10.48;;;230.80;1920.00;;;;;;6186315;23;20001;-79
2021/01/20 13:44:20;;;;;;;19.15;10.55;;;230.90;1920.00;;;;;;6186236;23;20033;-82
2021/01/20 13:46:46;;;;;;;17.15;10.80;;;230.90;1920.00;;;;;;6184904;23;20093;-78
2021/01/20 13:49:12;;;;;;;19.40;11.00;;;230.90;1868.80;;;;;;6184822;23;20032;-81
2021/01/20 13:51:37;;;;;;;20.88;10.95;;;230.90;1868.80;;;;;;6184843;23;20435;-77
2021/01/20 13:54:03;;;;;;;22.40;12.10;;;230.90;1868.80;;;;;;6184858;23;20075;-78
2021/01/20 13:56:29;;;;;;;21.45;15.13;;;230.80;1894.40;;;;;;6185025;23;20435;-82
2021/01/20 13:58:55;;;;;;;27.17;15.15;;;230.90;1894.40;;;;;;6186366;23;19997;-77
2021/01/20 14:01:22;;;;;;;22.60;15.30;;;230.90;1894.40;;;;;;6185910;23;20014;-82
2021/01/20 14:03:49;;;;;;;31.38;17.27;;;231.00;1920.00;;;;;;6186262;23;20005;-80
2021/01/20 14:06:15;;;;;;;45.03;20.60;;;231.00;1920.00;;;;;;6184551;23;20012;-83
2021/01/20 14:08:41;;;;;;;86.60;49.28;;;231.00;1920.00;;;;;;6186696;23;20001;-87
2021/01/20 14:11:07;;;;;;;92.65;50.53;;;231.10;1945.60;;;;;;6186290;23;20323;-78